sensor_id;sensor_type;location;lat;lon;timestamp;temperature;humidity
35607;DHT22;21729;58.392;15.656;2023-06-14T00:01:30;10.90;99.90
35607;DHT22;21729;58.392;15.656;2023-06-14T00:04:14;10.80;99.90
35607;DHT22;21729;58.392;15.656;2023-06-14T00:06:48;10.70;99.90
35607;DHT22;21729;58.392;15.656;2023-06-14T00:09:24;10.60;1.00
35607;DHT22;21729;58.392;15.656;2023-06-14T00:12:14;10.60;1.00
35607;DHT22;21729;58.392;15.656;2023-06-14T00:15:05;10.60;1.00
35607;DHT22;21729;58.392;15.656;2023-06-14T00:17:57;10.50;1.00
35607;DHT22;21729;58.392;15.656;2023-06-14T00:20:30;10.40;1.00
35607;DHT22;21729;58.392;15.656;2023-06-14T00:23:02;10.40;1.00
35607;DHT22;21729;58.392;15.656;2023-06-14T00:25:39;10.40;1.00
35607;DHT22;21729;58.392;15.656;2023-06-14T00:28:11;10.40;1.00
35607;DHT22;21729;58.392;15.656;2023-06-14T00:30:56;10.40;1.00
35607;DHT22;21729;58.392;15.656;2023-06-14T00:33:27;10.30;1.00
35607;DHT22;21729;58.392;15.656;2023-06-14T00:36:00;10.40;1.00
35607;DHT22;21729;58.392;15.656;2023-06-14T00:38:40;10.30;1.00
35607;DHT22;21729;58.392;15.656;2023-06-14T00:41:22;10.30;1.00
35607;DHT22;21729;58.392;15.656;2023-06-14T00:44:00;10.20;1.00
35607;DHT22;21729;58.392;15.656;2023-06-14T00:46:29;10.30;1.00
35607;DHT22;21729;58.392;15.656;2023-06-14T00:49:08;9.90;1.00
35607;DHT22;21729;58.392;15.656;2023-06-14T00:51:48;10.10;1.00
35607;DHT22;21729;58.392;15.656;2023-06-14T00:54:20;10.20;1.00
35607;DHT22;21729;58.392;15.656;2023-06-14T00:56:52;9.90;1.00
35607;DHT22;21729;58.392;15.656;2023-06-14T00:59:32;9.90;1.00
35607;DHT22;21729;58.392;15.656;2023-06-14T01:02:09;9.80;1.00
35607;DHT22;21729;58.392;15.656;2023-06-14T01:04:43;9.70;1.00
35607;DHT22;21729;58.392;15.656;2023-06-14T01:07:29;9.70;1.00
35607;DHT22;21729;58.392;15.656;2023-06-14T01:10:30;9.50;1.00
35607;DHT22;21729;58.392;15.656;2023-06-14T01:13:24;9.50;1.00
35607;DHT22;21729;58.392;15.656;2023-06-14T01:16:07;9.60;1.00
35607;DHT22;21729;58.392;15.656;2023-06-14T01:18:53;9.60;1.00
35607;DHT22;21729;58.392;15.656;2023-06-14T01:22:05;9.60;1.00
35607;DHT22;21729;58.392;15.656;2023-06-14T01:24:50;9.60;1.00
35607;DHT22;21729;58.392;15.656;2023-06-14T01:27:27;9.50;1.00
35607;DHT22;21729;58.392;15.656;2023-06-14T01:29:58;9.70;1.00
35607;DHT22;21729;58.392;15.656;2023-06-14T01:32:53;9.60;1.00
35607;DHT22;21729;58.392;15.656;2023-06-14T01:35:38;9.50;1.00
35607;DHT22;21729;58.392;15.656;2023-06-14T01:38:10;9.70;1.00
35607;DHT22;21729;58.392;15.656;2023-06-14T01:41:19;9.70;1.00
35607;DHT22;21729;58.392;15.656;2023-06-14T01:44:13;9.90;1.00
35607;DHT22;21729;58.392;15.656;2023-06-14T01:46:53;9.70;1.00
35607;DHT22;21729;58.392;15.656;2023-06-14T01:49:34;9.80;1.00
35607;DHT22;21729;58.392;15.656;2023-06-14T01:52:17;9.60;1.00
35607;DHT22;21729;58.392;15.656;2023-06-14T01:55:05;9.60;1.00
35607;DHT22;21729;58.392;15.656;2023-06-14T01:58:16;10.00;1.00
35607;DHT22;21729;58.392;15.656;2023-06-14T02:00:57;9.70;1.00
35607;DHT22;21729;58.392;15.656;2023-06-14T02:03:28;9.60;1.00
35607;DHT22;21729;58.392;15.656;2023-06-14T02:06:06;9.60;99.90
35607;DHT22;21729;58.392;15.656;2023-06-14T02:09:00;9.60;99.90
35607;DHT22;21729;58.392;15.656;2023-06-14T02:11:47;9.60;99.90
35607;DHT22;21729;58.392;15.656;2023-06-14T02:14:22;9.60;99.90
35607;DHT22;21729;58.392;15.656;2023-06-14T02:17:20;9.50;99.90
35607;DHT22;21729;58.392;15.656;2023-06-14T02:20:16;9.40;99.90
35607;DHT22;21729;58.392;15.656;2023-06-14T02:23:12;9.50;99.90
35607;DHT22;21729;58.392;15.656;2023-06-14T02:25:55;9.50;99.90
35607;DHT22;21729;58.392;15.656;2023-06-14T02:28:30;9.50;99.90
35607;DHT22;21729;58.392;15.656;2023-06-14T02:31:02;9.40;99.90
35607;DHT22;21729;58.392;15.656;2023-06-14T02:33:35;9.50;99.90
35607;DHT22;21729;58.392;15.656;2023-06-14T02:36:08;9.70;99.90
35607;DHT22;21729;58.392;15.656;2023-06-14T02:38:49;9.50;99.90
35607;DHT22;21729;58.392;15.656;2023-06-14T02:41:27;9.80;99.90
35607;DHT22;21729;58.392;15.656;2023-06-14T02:44:00;9.30;99.90
35607;DHT22;21729;58.392;15.656;2023-06-14T02:46:36;9.40;99.90
35607;DHT22;21729;58.392;15.656;2023-06-14T02:49:14;9.40;99.90
35607;DHT22;21729;58.392;15.656;2023-06-14T02:52:15;9.60;99.90
35607;DHT22;21729;58.392;15.656;2023-06-14T02:54:56;9.60;99.90
35607;DHT22;21729;58.392;15.656;2023-06-14T02:57:34;9.70;99.90
35607;DHT22;21729;58.392;15.656;2023-06-14T03:00:25;9.40;99.90
35607;DHT22;21729;58.392;15.656;2023-06-14T03:03:25;9.80;99.90
35607;DHT22;21729;58.392;15.656;2023-06-14T03:06:18;9.80;99.90
35607;DHT22;21729;58.392;15.656;2023-06-14T03:08:57;9.80;99.90
35607;DHT22;21729;58.392;15.656;2023-06-14T03:11:46;9.80;99.90
35607;DHT22;21729;58.392;15.656;2023-06-14T03:14:55;9.80;99.90
35607;DHT22;21729;58.392;15.656;2023-06-14T03:17:36;9.90;99.90
35607;DHT22;21729;58.392;15.656;2023-06-14T03:20:25;10.20;99.90
35607;DHT22;21729;58.392;15.656;2023-06-14T03:23:02;10.00;99.90
35607;DHT22;21729;58.392;15.656;2023-06-14T03:25:45;10.00;99.90
35607;DHT22;21729;58.392;15.656;2023-06-14T03:28:27;10.00;99.90
35607;DHT22;21729;58.392;15.656;2023-06-14T03:31:33;10.00;99.90
35607;DHT22;21729;58.392;15.656;2023-06-14T03:34:05;10.00;99.90
35607;DHT22;21729;58.392;15.656;2023-06-14T03:40:18;10.10;99.90
35607;DHT22;21729;58.392;15.656;2023-06-14T03:42:58;10.30;99.90
35607;DHT22;21729;58.392;15.656;2023-06-14T03:45:39;10.30;99.90
35607;DHT22;21729;58.392;15.656;2023-06-14T03:48:20;10.40;99.90
35607;DHT22;21729;58.392;15.656;2023-06-14T03:51:06;10.40;99.90
35607;DHT22;21729;58.392;15.656;2023-06-14T03:53:45;10.50;99.90
35607;DHT22;21729;58.392;15.656;2023-06-14T03:56:22;10.60;99.90
35607;DHT22;21729;58.392;15.656;2023-06-14T03:59:01;10.70;99.90
35607;DHT22;21729;58.392;15.656;2023-06-14T04:01:37;11.00;99.90
35607;DHT22;21729;58.392;15.656;2023-06-14T04:04:12;11.00;99.90
35607;DHT22;21729;58.392;15.656;2023-06-14T04:06:43;11.10;99.90
35607;DHT22;21729;58.392;15.656;2023-06-14T04:09:23;11.00;99.90
35607;DHT22;21729;58.392;15.656;2023-06-14T04:12:02;11.20;99.90
35607;DHT22;21729;58.392;15.656;2023-06-14T04:14:34;11.50;99.90
35607;DHT22;21729;58.392;15.656;2023-06-14T04:17:25;11.50;99.90
35607;DHT22;21729;58.392;15.656;2023-06-14T04:20:15;11.70;99.90
35607;DHT22;21729;58.392;15.656;2023-06-14T04:22:57;12.00;99.90
35607;DHT22;21729;58.392;15.656;2023-06-14T04:25:27;11.90;99.90
35607;DHT22;21729;58.392;15.656;2023-06-14T04:28:25;11.90;99.90
35607;DHT22;21729;58.392;15.656;2023-06-14T04:31:02;12.00;99.90
35607;DHT22;21729;58.392;15.656;2023-06-14T04:33:35;12.20;99.90
35607;DHT22;21729;58.392;15.656;2023-06-14T04:36:27;12.80;99.90
35607;DHT22;21729;58.392;15.656;2023-06-14T04:39:09;12.70;99.90
35607;DHT22;21729;58.392;15.656;2023-06-14T04:42:02;13.10;54.80
35607;DHT22;21729;58.392;15.656;2023-06-14T04:45:03;13.30;8.90
35607;DHT22;21729;58.392;15.656;2023-06-14T04:47:47;13.50;1.00
35607;DHT22;21729;58.392;15.656;2023-06-14T04:50:30;14.10;1.00
35607;DHT22;21729;58.392;15.656;2023-06-14T04:53:18;14.30;1.00
35607;DHT22;21729;58.392;15.656;2023-06-14T04:56:03;14.40;1.00
35607;DHT22;21729;58.392;15.656;2023-06-14T04:58:34;14.60;1.00
35607;DHT22;21729;58.392;15.656;2023-06-14T05:01:10;14.90;1.00
35607;DHT22;21729;58.392;15.656;2023-06-14T05:03:51;15.00;1.00
35607;DHT22;21729;58.392;15.656;2023-06-14T05:06:25;15.00;1.00
35607;DHT22;21729;58.392;15.656;2023-06-14T05:09:14;15.50;1.00
35607;DHT22;21729;58.392;15.656;2023-06-14T05:12:02;15.90;1.00
35607;DHT22;21729;58.392;15.656;2023-06-14T05:14:47;16.10;1.00
35607;DHT22;21729;58.392;15.656;2023-06-14T05:18:25;16.60;1.00
35607;DHT22;21729;58.392;15.656;2023-06-14T05:21:05;17.30;1.00
35607;DHT22;21729;58.392;15.656;2023-06-14T05:24:23;19.50;99.90
35607;DHT22;21729;58.392;15.656;2023-06-14T05:27:10;22.10;99.90
35607;DHT22;21729;58.392;15.656;2023-06-14T05:29:52;23.50;78.80
35607;DHT22;21729;58.392;15.656;2023-06-14T05:32:53;24.20;52.20
35607;DHT22;21729;58.392;15.656;2023-06-14T05:35:53;24.60;11.10
35607;DHT22;21729;58.392;15.656;2023-06-14T05:38:38;25.10;24.10
35607;DHT22;21729;58.392;15.656;2023-06-14T05:41:44;25.40;1.00
35607;DHT22;21729;58.392;15.656;2023-06-14T05:44:28;25.40;1.00
35607;DHT22;21729;58.392;15.656;2023-06-14T05:47:37;26.10;1.00
35607;DHT22;21729;58.392;15.656;2023-06-14T05:54:29;26.50;1.00
35607;DHT22;21729;58.392;15.656;2023-06-14T05:58:01;27.00;1.00
35607;DHT22;21729;58.392;15.656;2023-06-14T06:00:45;26.90;1.00
35607;DHT22;21729;58.392;15.656;2023-06-14T06:03:58;27.10;1.00
35607;DHT22;21729;58.392;15.656;2023-06-14T06:10:26;28.50;1.00
35607;DHT22;21729;58.392;15.656;2023-06-14T06:13:10;29.50;1.00
35607;DHT22;21729;58.392;15.656;2023-06-14T06:16:23;29.10;1.00
35607;DHT22;21729;58.392;15.656;2023-06-14T06:19:05;28.00;1.00
35607;DHT22;21729;58.392;15.656;2023-06-14T06:22:20;28.40;1.00
35607;DHT22;21729;58.392;15.656;2023-06-14T06:25:01;29.70;1.00
35607;DHT22;21729;58.392;15.656;2023-06-14T06:27:44;30.10;1.00
35607;DHT22;21729;58.392;15.656;2023-06-14T06:30:59;29.70;1.00
35607;DHT22;21729;58.392;15.656;2023-06-14T06:33:39;29.80;1.00
35607;DHT22;21729;58.392;15.656;2023-06-14T06:36:48;29.80;1.00
35607;DHT22;21729;58.392;15.656;2023-06-14T06:40:02;30.00;1.00
35607;DHT22;21729;58.392;15.656;2023-06-14T06:42:46;29.90;1.00
35607;DHT22;21729;58.392;15.656;2023-06-14T06:48:52;31.00;1.00
35607;DHT22;21729;58.392;15.656;2023-06-14T06:49:13;29.70;1.00
35607;DHT22;21729;58.392;15.656;2023-06-14T06:52:32;30.70;1.00
35607;DHT22;21729;58.392;15.656;2023-06-14T06:55:28;30.70;1.00
35607;DHT22;21729;58.392;15.656;2023-06-14T06:58:28;30.70;1.00
35607;DHT22;21729;58.392;15.656;2023-06-14T07:01:00;31.00;1.00
35607;DHT22;21729;58.392;15.656;2023-06-14T07:03:30;31.90;1.00
35607;DHT22;21729;58.392;15.656;2023-06-14T07:06:01;31.40;1.00
35607;DHT22;21729;58.392;15.656;2023-06-14T07:08:57;31.80;1.00
35607;DHT22;21729;58.392;15.656;2023-06-14T07:11:43;32.40;99.90
35607;DHT22;21729;58.392;15.656;2023-06-14T07:17:26;32.30;99.90
35607;DHT22;21729;58.392;15.656;2023-06-14T07:20:02;31.90;1.00
35607;DHT22;21729;58.392;15.656;2023-06-14T07:22:53;32.00;1.00
35607;DHT22;21729;58.392;15.656;2023-06-14T07:25:43;32.80;99.90
35607;DHT22;21729;58.392;15.656;2023-06-14T07:29:10;33.80;99.90
35607;DHT22;21729;58.392;15.656;2023-06-14T07:31:55;33.30;99.90
35607;DHT22;21729;58.392;15.656;2023-06-14T07:34:41;33.20;99.90
35607;DHT22;21729;58.392;15.656;2023-06-14T07:37:19;32.90;99.90
35607;DHT22;21729;58.392;15.656;2023-06-14T07:40:03;32.80;99.90
35607;DHT22;21729;58.392;15.656;2023-06-14T07:43:15;32.80;99.90
35607;DHT22;21729;58.392;15.656;2023-06-14T07:46:00;33.70;99.90
35607;DHT22;21729;58.392;15.656;2023-06-14T07:49:23;34.00;99.90
35607;DHT22;21729;58.392;15.656;2023-06-14T07:52:18;34.60;99.90
35607;DHT22;21729;58.392;15.656;2023-06-14T07:54:52;34.00;99.90
35607;DHT22;21729;58.392;15.656;2023-06-14T07:57:34;34.00;99.90
35607;DHT22;21729;58.392;15.656;2023-06-14T08:00:12;33.50;99.90
35607;DHT22;21729;58.392;15.656;2023-06-14T08:03:06;33.80;99.90
35607;DHT22;21729;58.392;15.656;2023-06-14T08:06:04;34.20;99.90
35607;DHT22;21729;58.392;15.656;2023-06-14T08:09:04;34.50;99.90
35607;DHT22;21729;58.392;15.656;2023-06-14T08:11:44;35.20;99.90
35607;DHT22;21729;58.392;15.656;2023-06-14T08:14:28;34.90;99.90
35607;DHT22;21729;58.392;15.656;2023-06-14T08:17:42;34.50;99.90
35607;DHT22;21729;58.392;15.656;2023-06-14T08:20:57;34.20;99.90
35607;DHT22;21729;58.392;15.656;2023-06-14T08:23:35;34.30;99.90
35607;DHT22;21729;58.392;15.656;2023-06-14T08:26:25;34.40;99.90
35607;DHT22;21729;58.392;15.656;2023-06-14T08:29:26;34.40;99.90
35607;DHT22;21729;58.392;15.656;2023-06-14T08:35:24;34.50;99.90
35607;DHT22;21729;58.392;15.656;2023-06-14T08:38:05;35.50;99.90
35607;DHT22;21729;58.392;15.656;2023-06-14T08:40:59;35.20;99.90
35607;DHT22;21729;58.392;15.656;2023-06-14T08:55:08;36.00;99.90
35607;DHT22;21729;58.392;15.656;2023-06-14T08:58:02;34.10;99.90
35607;DHT22;21729;58.392;15.656;2023-06-14T09:01:03;35.30;99.90
35607;DHT22;21729;58.392;15.656;2023-06-14T09:04:41;34.70;99.90
35607;DHT22;21729;58.392;15.656;2023-06-14T09:07:25;34.70;99.90
35607;DHT22;21729;58.392;15.656;2023-06-14T09:10:35;35.30;99.90
35607;DHT22;21729;58.392;15.656;2023-06-14T09:13:22;34.50;99.90
35607;DHT22;21729;58.392;15.656;2023-06-14T09:16:00;34.40;99.90
35607;DHT22;21729;58.392;15.656;2023-06-14T09:18:47;34.70;99.90
35607;DHT22;21729;58.392;15.656;2023-06-14T09:21:26;34.60;99.90
35607;DHT22;21729;58.392;15.656;2023-06-14T09:24:04;33.80;99.90
35607;DHT22;21729;58.392;15.656;2023-06-14T09:27:05;34.70;99.90
35607;DHT22;21729;58.392;15.656;2023-06-14T09:29:45;35.80;99.90
35607;DHT22;21729;58.392;15.656;2023-06-14T09:35:02;35.20;99.90
35607;DHT22;21729;58.392;15.656;2023-06-14T09:37:34;35.50;99.90
35607;DHT22;21729;58.392;15.656;2023-06-14T09:40:05;35.90;99.90
35607;DHT22;21729;58.392;15.656;2023-06-14T09:42:37;35.40;99.90
35607;DHT22;21729;58.392;15.656;2023-06-14T09:45:07;34.90;99.90
35607;DHT22;21729;58.392;15.656;2023-06-14T09:47:55;34.40;99.90
35607;DHT22;21729;58.392;15.656;2023-06-14T09:50:28;35.00;99.90
35607;DHT22;21729;58.392;15.656;2023-06-14T09:53:01;33.60;99.90
35607;DHT22;21729;58.392;15.656;2023-06-14T09:55:31;33.20;99.90
35607;DHT22;21729;58.392;15.656;2023-06-14T09:58:11;32.60;99.90
35607;DHT22;21729;58.392;15.656;2023-06-14T10:00:42;32.20;99.90
35607;DHT22;21729;58.392;15.656;2023-06-14T10:03:13;30.80;99.90
35607;DHT22;21729;58.392;15.656;2023-06-14T10:05:47;31.20;99.90
35607;DHT22;21729;58.392;15.656;2023-06-14T10:08:23;31.30;99.90
35607;DHT22;21729;58.392;15.656;2023-06-14T10:10:55;31.10;99.90
35607;DHT22;21729;58.392;15.656;2023-06-14T10:13:26;32.00;99.90
35607;DHT22;21729;58.392;15.656;2023-06-14T10:18:48;32.10;99.90
35607;DHT22;21729;58.392;15.656;2023-06-14T10:21:33;31.70;99.90
35607;DHT22;21729;58.392;15.656;2023-06-14T10:24:07;31.10;99.90
35607;DHT22;21729;58.392;15.656;2023-06-14T10:26:50;30.80;99.90
35607;DHT22;21729;58.392;15.656;2023-06-14T10:29:22;30.80;99.90
35607;DHT22;21729;58.392;15.656;2023-06-14T10:32:02;30.10;99.90
35607;DHT22;21729;58.392;15.656;2023-06-14T10:34:31;29.90;99.90
35607;DHT22;21729;58.392;15.656;2023-06-14T10:37:12;30.60;99.90
35607;DHT22;21729;58.392;15.656;2023-06-14T10:39:40;31.10;99.90
35607;DHT22;21729;58.392;15.656;2023-06-14T10:42:14;30.70;99.90
35607;DHT22;21729;58.392;15.656;2023-06-14T10:44:57;29.70;99.90
35607;DHT22;21729;58.392;15.656;2023-06-14T10:47:28;28.90;99.90
35607;DHT22;21729;58.392;15.656;2023-06-14T10:50:05;29.40;99.90
35607;DHT22;21729;58.392;15.656;2023-06-14T10:52:34;29.80;99.90
35607;DHT22;21729;58.392;15.656;2023-06-14T10:55:09;30.10;99.90
35607;DHT22;21729;58.392;15.656;2023-06-14T10:57:38;30.20;99.90
35607;DHT22;21729;58.392;15.656;2023-06-14T11:00:08;29.90;99.90
35607;DHT22;21729;58.392;15.656;2023-06-14T11:05:42;30.00;99.90
35607;DHT22;21729;58.392;15.656;2023-06-14T11:08:40;29.80;99.90
35607;DHT22;21729;58.392;15.656;2023-06-14T11:11:13;29.70;99.90
35607;DHT22;21729;58.392;15.656;2023-06-14T11:13:57;29.70;99.90
35607;DHT22;21729;58.392;15.656;2023-06-14T11:16:26;29.30;99.90
35607;DHT22;21729;58.392;15.656;2023-06-14T11:18:54;29.50;99.90
35607;DHT22;21729;58.392;15.656;2023-06-14T11:21:21;29.40;99.90
35607;DHT22;21729;58.392;15.656;2023-06-14T11:23:50;29.40;99.90
35607;DHT22;21729;58.392;15.656;2023-06-14T11:26:25;29.50;99.90
35607;DHT22;21729;58.392;15.656;2023-06-14T11:28:55;29.10;99.90
35607;DHT22;21729;58.392;15.656;2023-06-14T11:31:25;29.10;99.90
35607;DHT22;21729;58.392;15.656;2023-06-14T11:33:54;29.20;99.90
35607;DHT22;21729;58.392;15.656;2023-06-14T11:36:22;28.80;99.90
35607;DHT22;21729;58.392;15.656;2023-06-14T11:38:49;28.20;99.90
35607;DHT22;21729;58.392;15.656;2023-06-14T11:41:16;28.40;99.90
35607;DHT22;21729;58.392;15.656;2023-06-14T11:43:46;28.20;99.90
35607;DHT22;21729;58.392;15.656;2023-06-14T11:46:16;28.30;99.90
35607;DHT22;21729;58.392;15.656;2023-06-14T11:48:49;29.10;99.90
35607;DHT22;21729;58.392;15.656;2023-06-14T11:51:16;29.40;99.90
35607;DHT22;21729;58.392;15.656;2023-06-14T11:53:43;29.40;99.90
35607;DHT22;21729;58.392;15.656;2023-06-14T11:56:10;29.30;99.90
35607;DHT22;21729;58.392;15.656;2023-06-14T11:58:37;28.90;99.90
35607;DHT22;21729;58.392;15.656;2023-06-14T12:01:05;28.70;99.90
35607;DHT22;21729;58.392;15.656;2023-06-14T12:03:32;28.50;99.90
35607;DHT22;21729;58.392;15.656;2023-06-14T12:06:08;28.50;99.90
35607;DHT22;21729;58.392;15.656;2023-06-14T12:08:36;28.50;99.90
35607;DHT22;21729;58.392;15.656;2023-06-14T12:11:06;28.30;99.90
35607;DHT22;21729;58.392;15.656;2023-06-14T12:13:34;28.10;99.90
35607;DHT22;21729;58.392;15.656;2023-06-14T12:16:04;27.80;99.90
35607;DHT22;21729;58.392;15.656;2023-06-14T12:18:32;27.80;99.90
35607;DHT22;21729;58.392;15.656;2023-06-14T12:21:01;27.60;99.90
35607;DHT22;21729;58.392;15.656;2023-06-14T12:23:43;27.60;1.00
35607;DHT22;21729;58.392;15.656;2023-06-14T12:26:13;27.60;99.90
35607;DHT22;21729;58.392;15.656;2023-06-14T12:28:40;27.80;99.90
35607;DHT22;21729;58.392;15.656;2023-06-14T12:31:08;27.90;99.90
35607;DHT22;21729;58.392;15.656;2023-06-14T12:33:35;27.90;99.90
35607;DHT22;21729;58.392;15.656;2023-06-14T12:36:04;27.70;99.90
35607;DHT22;21729;58.392;15.656;2023-06-14T12:38:31;27.40;1.40
35607;DHT22;21729;58.392;15.656;2023-06-14T12:41:00;27.60;1.00
35607;DHT22;21729;58.392;15.656;2023-06-14T12:43:27;27.90;99.90
35607;DHT22;21729;58.392;15.656;2023-06-14T12:45:54;27.40;99.90
35607;DHT22;21729;58.392;15.656;2023-06-14T12:48:21;27.90;99.90
35607;DHT22;21729;58.392;15.656;2023-06-14T12:50:48;27.60;99.90
35607;DHT22;21729;58.392;15.656;2023-06-14T12:53:16;27.30;1.00
35607;DHT22;21729;58.392;15.656;2023-06-14T12:55:43;27.00;99.90
35607;DHT22;21729;58.392;15.656;2023-06-14T12:58:11;26.80;1.00
35607;DHT22;21729;58.392;15.656;2023-06-14T13:00:40;26.90;99.90
35607;DHT22;21729;58.392;15.656;2023-06-14T13:03:07;27.20;99.90
35607;DHT22;21729;58.392;15.656;2023-06-14T13:05:34;27.50;99.90
35607;DHT22;21729;58.392;15.656;2023-06-14T13:08:01;27.40;99.90
35607;DHT22;21729;58.392;15.656;2023-06-14T13:10:28;27.30;99.90
35607;DHT22;21729;58.392;15.656;2023-06-14T13:12:55;27.60;1.00
35607;DHT22;21729;58.392;15.656;2023-06-14T13:15:25;27.70;99.90
35607;DHT22;21729;58.392;15.656;2023-06-14T13:17:52;27.60;99.90
35607;DHT22;21729;58.392;15.656;2023-06-14T13:20:20;27.30;1.40
35607;DHT22;21729;58.392;15.656;2023-06-14T13:22:48;27.20;99.90
35607;DHT22;21729;58.392;15.656;2023-06-14T13:25:15;27.20;99.90
35607;DHT22;21729;58.392;15.656;2023-06-14T13:27:42;27.50;99.90
35607;DHT22;21729;58.392;15.656;2023-06-14T13:30:10;27.90;99.90
35607;DHT22;21729;58.392;15.656;2023-06-14T13:32:39;28.20;99.90
35607;DHT22;21729;58.392;15.656;2023-06-14T13:35:06;28.10;99.90
35607;DHT22;21729;58.392;15.656;2023-06-14T13:37:33;28.20;99.90
35607;DHT22;21729;58.392;15.656;2023-06-14T13:40:01;28.20;99.90
35607;DHT22;21729;58.392;15.656;2023-06-14T13:42:28;27.80;99.90
35607;DHT22;21729;58.392;15.656;2023-06-14T13:44:58;28.20;1.00
35607;DHT22;21729;58.392;15.656;2023-06-14T13:47:25;28.50;99.90
35607;DHT22;21729;58.392;15.656;2023-06-14T13:49:54;28.70;99.90
35607;DHT22;21729;58.392;15.656;2023-06-14T13:52:21;28.60;99.90
35607;DHT22;21729;58.392;15.656;2023-06-14T13:54:48;28.60;99.90
35607;DHT22;21729;58.392;15.656;2023-06-14T13:57:15;28.00;99.90
35607;DHT22;21729;58.392;15.656;2023-06-14T13:59:42;27.90;99.90
35607;DHT22;21729;58.392;15.656;2023-06-14T14:02:11;27.80;99.90
35607;DHT22;21729;58.392;15.656;2023-06-14T14:04:38;28.20;99.90
35607;DHT22;21729;58.392;15.656;2023-06-14T14:07:08;27.80;99.90
35607;DHT22;21729;58.392;15.656;2023-06-14T14:09:35;27.30;99.90
35607;DHT22;21729;58.392;15.656;2023-06-14T14:12:03;27.10;99.90
35607;DHT22;21729;58.392;15.656;2023-06-14T14:14:32;26.90;99.90
35607;DHT22;21729;58.392;15.656;2023-06-14T14:16:59;27.10;99.90
35607;DHT22;21729;58.392;15.656;2023-06-14T14:19:27;26.80;99.90
35607;DHT22;21729;58.392;15.656;2023-06-14T14:21:54;26.40;99.90
35607;DHT22;21729;58.392;15.656;2023-06-14T14:24:22;26.30;99.90
35607;DHT22;21729;58.392;15.656;2023-06-14T14:26:50;26.10;99.90
35607;DHT22;21729;58.392;15.656;2023-06-14T14:29:19;25.80;99.90
35607;DHT22;21729;58.392;15.656;2023-06-14T14:31:46;25.90;99.90
35607;DHT22;21729;58.392;15.656;2023-06-14T14:34:13;26.30;99.90
35607;DHT22;21729;58.392;15.656;2023-06-14T14:36:40;26.40;99.90
35607;DHT22;21729;58.392;15.656;2023-06-14T14:39:08;26.40;99.90
35607;DHT22;21729;58.392;15.656;2023-06-14T14:41:36;26.50;99.90
35607;DHT22;21729;58.392;15.656;2023-06-14T14:44:06;26.50;99.90
35607;DHT22;21729;58.392;15.656;2023-06-14T14:46:33;26.40;99.90
35607;DHT22;21729;58.392;15.656;2023-06-14T14:49:00;26.60;99.90
35607;DHT22;21729;58.392;15.656;2023-06-14T14:51:28;26.50;99.90
35607;DHT22;21729;58.392;15.656;2023-06-14T14:53:55;26.40;99.90
35607;DHT22;21729;58.392;15.656;2023-06-14T14:56:22;26.10;99.90
35607;DHT22;21729;58.392;15.656;2023-06-14T14:58:52;26.00;99.90
35607;DHT22;21729;58.392;15.656;2023-06-14T15:01:19;25.90;99.90
35607;DHT22;21729;58.392;15.656;2023-06-14T15:03:47;26.00;99.90
35607;DHT22;21729;58.392;15.656;2023-06-14T15:06:14;26.00;99.90
35607;DHT22;21729;58.392;15.656;2023-06-14T15:08:43;26.00;99.90
35607;DHT22;21729;58.392;15.656;2023-06-14T15:11:10;25.90;99.90
35607;DHT22;21729;58.392;15.656;2023-06-14T15:13:37;25.80;99.90
35607;DHT22;21729;58.392;15.656;2023-06-14T15:16:06;25.80;99.90
35607;DHT22;21729;58.392;15.656;2023-06-14T15:18:33;25.60;99.90
35607;DHT22;21729;58.392;15.656;2023-06-14T15:21:00;25.50;99.90
35607;DHT22;21729;58.392;15.656;2023-06-14T15:23:27;25.50;99.90
35607;DHT22;21729;58.392;15.656;2023-06-14T15:25:55;25.50;99.90
35607;DHT22;21729;58.392;15.656;2023-06-14T15:28:22;25.70;99.90
35607;DHT22;21729;58.392;15.656;2023-06-14T15:30:50;25.60;99.90
35607;DHT22;21729;58.392;15.656;2023-06-14T15:33:18;25.70;99.90
35607;DHT22;21729;58.392;15.656;2023-06-14T15:35:46;25.70;99.90
35607;DHT22;21729;58.392;15.656;2023-06-14T15:38:13;25.70;99.90
35607;DHT22;21729;58.392;15.656;2023-06-14T15:40:40;25.60;99.90
35607;DHT22;21729;58.392;15.656;2023-06-14T15:43:07;25.70;99.90
35607;DHT22;21729;58.392;15.656;2023-06-14T15:45:35;25.80;99.90
35607;DHT22;21729;58.392;15.656;2023-06-14T15:48:03;25.70;99.90
35607;DHT22;21729;58.392;15.656;2023-06-14T15:50:31;25.60;99.90
35607;DHT22;21729;58.392;15.656;2023-06-14T15:52:58;25.50;99.90
35607;DHT22;21729;58.392;15.656;2023-06-14T15:55:26;25.60;99.90
35607;DHT22;21729;58.392;15.656;2023-06-14T15:57:53;25.50;99.90
35607;DHT22;21729;58.392;15.656;2023-06-14T16:00:21;25.50;99.90
35607;DHT22;21729;58.392;15.656;2023-06-14T16:02:48;25.40;99.90
35607;DHT22;21729;58.392;15.656;2023-06-14T16:05:16;25.40;99.90
35607;DHT22;21729;58.392;15.656;2023-06-14T16:07:44;25.40;99.90
35607;DHT22;21729;58.392;15.656;2023-06-14T16:10:11;25.30;99.90
35607;DHT22;21729;58.392;15.656;2023-06-14T16:12:38;25.40;99.90
35607;DHT22;21729;58.392;15.656;2023-06-14T16:15:06;25.30;99.90
35607;DHT22;21729;58.392;15.656;2023-06-14T16:17:34;25.30;99.90
35607;DHT22;21729;58.392;15.656;2023-06-14T16:20:02;25.20;99.90
35607;DHT22;21729;58.392;15.656;2023-06-14T16:22:29;25.10;99.90
35607;DHT22;21729;58.392;15.656;2023-06-14T16:24:58;25.20;99.90
35607;DHT22;21729;58.392;15.656;2023-06-14T16:27:25;25.20;99.90
35607;DHT22;21729;58.392;15.656;2023-06-14T16:29:52;25.20;99.90
35607;DHT22;21729;58.392;15.656;2023-06-14T16:32:19;25.20;99.90
35607;DHT22;21729;58.392;15.656;2023-06-14T16:34:47;25.10;99.90
35607;DHT22;21729;58.392;15.656;2023-06-14T16:37:14;25.10;99.90
35607;DHT22;21729;58.392;15.656;2023-06-14T16:39:41;25.10;99.90
35607;DHT22;21729;58.392;15.656;2023-06-14T16:42:09;25.00;99.90
35607;DHT22;21729;58.392;15.656;2023-06-14T16:44:37;25.00;99.90
35607;DHT22;21729;58.392;15.656;2023-06-14T16:47:05;24.80;99.90
35607;DHT22;21729;58.392;15.656;2023-06-14T16:49:34;24.80;99.90
35607;DHT22;21729;58.392;15.656;2023-06-14T16:52:01;24.70;99.90
35607;DHT22;21729;58.392;15.656;2023-06-14T16:54:28;24.50;99.90
35607;DHT22;21729;58.392;15.656;2023-06-14T16:56:55;24.30;99.90
35607;DHT22;21729;58.392;15.656;2023-06-14T16:59:24;24.20;99.90
35607;DHT22;21729;58.392;15.656;2023-06-14T17:01:51;24.10;99.90
35607;DHT22;21729;58.392;15.656;2023-06-14T17:04:18;24.10;99.90
35607;DHT22;21729;58.392;15.656;2023-06-14T17:06:45;24.10;99.90
35607;DHT22;21729;58.392;15.656;2023-06-14T17:09:12;24.00;99.90
35607;DHT22;21729;58.392;15.656;2023-06-14T17:11:40;24.00;99.90